Adak, AK (99546)

3:40 AM HADT on September 18, 2014 (GMT -0900)
Adak | Change Station
CLOSE
Current Station
Airport
Location: Adak,
Elevation: 13 ft
Nearby Weather Stations

Elev 13 ft 51.88 °N, 176.65 °W | Updated 4 minutes ago

Overcast
Overcast
48 °F
Feels Like 48 °F
N
16
Wind Variable Wind from NNW
Gusts 22 mph

Today
High -- | Low -- °F
--% Chance of Precip.
Yesterday
High -- | Low -- °F
Precip. -- in
8:26 AM 8:53 PM
Waning Crescent, 27% visible
Pressure 29.90 in
Visibility 10.0 miles
Clouds Few 3100 ft
Mostly Cloudy 4900 ft
Overcast 5500 ft
Dew Point 37 °F
Humidity 66%
Rainfall 0.03 in
Snow Depth 1 in , 0 in , 0 in
UV 0 out of 12
Pollen Not available.
Air Quality Not available.
Flu Activity Not available.
METAR PADK 181236Z 33014G19KT 10SM FEW031 BKN049 OVC055 09/03 A2990 RMK AO1

More Conditions Fewer Conditions

Pressure 29.90 in
Visibility 10.0 miles
Clouds Few 3100 ft
Mostly Cloudy 4900 ft
Overcast 5500 ft
Dew Point 37 °F
Humidity 66%
Rainfall 0.03 in
Snow Depth 1 in , 0 in , 0 in
UV 0 out of 12
Pollen Not available.
Air Quality Not available.
Flu Activity Not available.
METAR PADK 181236Z 33014G19KT 10SM FEW031 BKN049 OVC055 09/03 A2990 RMK AO1

More Conditions Fewer Conditions

10-Day Weather Forecast

Almanac

Astronomy

Sep. 18, 2014 Rise Set
Actual Time 8:26 AM HADT 8:53 PM HADT
Civil Twilight 7:52 AM HADT 9:27 PM HADT
Nautical Twilight 7:12 AM HADT 10:07 PM HADT
Astronomical Twilight 6:30 AM HADT 10:49 PM HADT
Moon 3:03 AM HADT 6:19 PM HADT
Length of Visible Light 13h 34m
Length of Day
12h 26m
Tomorrow will be 3m 58s shorter.
Waning Crescent, 27% of the Moon is Illuminated
Today
Waning Crescent
Sep 24
New
Oct 1
First Quarter
Oct 8
Full
Oct 15
Last Quarter

Today's Extremes

State Highs State Lows

Community

WunderPhotos

Upload Photos

1,754,333 photos uploaded!

Nearby

Snow Depth

Station Depth Elevation
Indian Pass 1 in 2300 ft
Little Chena Ridge 0 in 2000 ft
Coldfoot 0 in 1040 ft
Summit Creek 0 in 1400 ft
Nuka Glacier 164 in 1250 ft

Earthquake Activity

City Distance Mag. Time & Date
No recent earthquake activity has been reported nearby.
Minimum magnitude displayed is 2.5.

Coastal Water Temperatures

Place Temperature
No Stations Reporting

Nearby Weather Stations